Time,TemperatureF,DewpointF,PressureIn,WindDirection,WindDirectionDegrees,WindSpeedMPH,WindSpeedGustMPH,Humidity,HourlyPrecipIn,Conditions,Clouds,dailyrainin,SoftwareType,DateUTC
2013-09-15 14:22:00,60.0,54.0,29.91,NW,324,4.0,10.0,80,0.00,,,0.24,,2013-09-15 19:22:00,
2013-09-15 14:32:00,60.0,54.0,29.91,NW,324,4.0,10.0,80,0.00,,,0.24,,2013-09-15 19:32:00,
2013-09-15 14:52:00,61.0,53.0,29.91,NW,318,6.0,10.0,76,0.00,,,0.24,,2013-09-15 19:52:00,
2013-09-15 15:11:00,62.0,54.0,29.91,NW,322,6.0,13.0,76,0.00,,,0.24,,2013-09-15 20:11:00,
2013-09-15 15:22:00,62.0,55.0,29.91,NW,319,6.0,12.0,77,0.00,,,0.24,,2013-09-15 20:22:00,
2013-09-15 15:32:00,62.0,55.0,29.91,NW,319,6.0,12.0,77,0.00,,,0.24,,2013-09-15 20:32:00,
2013-09-15 15:53:00,61.0,54.0,29.92,NNW,332,5.0,11.0,78,0.00,,,0.24,,2013-09-15 20:53:00,
2013-09-15 16:11:00,60.0,54.0,29.92,NNW,339,6.0,11.0,80,0.00,,,0.24,,2013-09-15 21:11:00,
2013-09-15 16:21:00,58.0,53.0,29.93,NE,39,5.0,14.0,82,0.00,,,0.24,,2013-09-15 21:21:00,
2013-09-15 16:44:00,58.0,51.0,29.94,NNE,22,5.0,10.0,78,0.00,,,0.24,,2013-09-15 21:44:00,
2013-09-15 16:54:00,58.0,51.0,29.94,NNE,22,5.0,10.0,78,0.00,,,0.24,,2013-09-15 21:54:00,
2013-09-15 17:14:00,59.0,51.0,29.95,NNE,17,5.0,13.0,74,0.00,,,0.24,,2013-09-15 22:14:00,
2013-09-15 17:23:00,59.0,50.0,29.97,North,10,8.0,19.0,73,0.00,,,0.24,,2013-09-15 22:23:00,
2013-09-15 17:53:00,58.0,50.0,29.98,NNE,24,7.0,17.0,75,0.00,,,0.24,,2013-09-15 22:53:00,
2013-09-15 18:12:00,57.0,49.0,29.99,NNE,23,7.0,17.0,75,0.00,,,0.24,,2013-09-15 23:12:00,
2013-09-15 18:22:00,56.0,49.0,29.99,NNE,24,8.0,17.0,76,0.00,,,0.24,,2013-09-15 23:22:00,
2013-09-15 18:52:00,55.0,47.0,30.01,NNE,14,6.0,13.0,75,0.00,,,0.24,,2013-09-15 23:52:00,
2013-09-15 19:11:00,54.0,46.0,30.02,NNE,31,6.0,18.0,75,0.00,,,0.24,,2013-09-16 00:11:00,
2013-09-15 19:22:00,54.0,46.0,30.03,NNE,22,6.0,17.0,75,0.00,,,0.24,,2013-09-16 00:22:00,
2013-09-15 19:42:00,54.0,46.0,30.04,North,7,5.0,16.0,75,0.00,,,0.24,,2013-09-16 00:42:00,
2013-09-15 19:52:00,52.0,44.0,30.05,North,9,7.0,19.0,75,0.00,,,0.24,,2013-09-16 00:52:00,
2013-09-15 20:20:00,50.0,41.0,30.09,NNE,24,6.0,17.0,71,0.00,,,0.24,,2013-09-16 01:20:00,
2013-09-15 20:21:00,51.0,42.0,30.08,NNE,30,6.0,17.0,72,0.00,,,0.24,,2013-09-16 01:21:00,
2013-09-15 20:42:00,50.0,41.0,30.08,NNE,27,6.0,14.0,71,0.00,,,0.24,,2013-09-16 01:42:00,
2013-09-15 20:52:00,50.0,41.0,30.09,NNE,24,6.0,17.0,71,0.00,,,0.24,,2013-09-16 01:52:00,
2013-09-15 21:02:00,50.0,41.0,30.09,NNE,24,6.0,17.0,71,0.00,,,0.24,,2013-09-16 02:02:00,
2013-09-15 21:12:00,50.0,41.0,30.09,NNE,24,6.0,17.0,71,0.00,,,0.24,,2013-09-16 02:12:00,